Time;durP1;ratioP1;P1;durP2;ratioP2;P2;SDS_P1;SDS_P2;PMS_P1;PMS_P2;Temp;Humidity;BMP_temperature;BMP_pressure;BME280_temperature;BME280_humidity;BME280_pressure;Samples;Min_cycle;Max_cycle;Signal;HPM_P1;HPM_P2
2023/01/26 00:00:01;;;;;;;7.07;0.67;;;;;;;5.51;100.00;95720.72;5092466;28;20421;-59
2023/01/26 00:02:29;;;;;;;0.83;0.60;;;;;;;5.56;100.00;95720.03;5091598;28;20821;-59
2023/01/26 00:04:57;;;;;;;1.83;0.47;;;;;;;5.41;100.00;95715.22;5092213;28;20421;-59
2023/01/26 00:07:25;;;;;;;0.43;0.40;;;;;;;5.59;100.00;95719.56;5091999;28;20476;-59
2023/01/26 00:09:54;;;;;;;0.57;0.37;;;;;;;5.36;100.00;95716.91;5091737;28;20444;-59
2023/01/26 00:12:22;;;;;;;0.50;0.37;;;;;;;5.41;100.00;95714.41;5092178;28;20452;-58
2023/01/26 00:14:52;;;;;;;0.57;0.57;;;;;;;5.02;100.00;95727.13;5092047;28;20515;-59
2023/01/26 00:17:27;;;;;;;0.57;0.57;;;;;;;5.17;100.00;95726.69;5091997;28;20437;-59
2023/01/26 00:19:57;;;;;;;0.40;0.30;;;;;;;5.33;100.00;95722.63;5092064;28;20460;-59
2023/01/26 00:22:27;;;;;;;1.07;1.07;;;;;;;5.19;100.00;95731.75;5091869;28;20433;-58
2023/01/26 00:24:55;;;;;;;0.60;0.60;;;;;;;5.24;100.00;95724.00;5091889;28;20429;-58
2023/01/26 00:27:23;;;;;;;0.90;0.67;;;;;;;5.44;99.56;95719.22;5091783;28;20472;-58
2023/01/26 00:29:53;;;;;;;0.50;0.33;;;;;;;4.91;100.00;95714.75;5092216;28;20446;-58
2023/01/26 00:32:22;;;;;;;0.60;0.60;;;;;;;5.27;100.00;95713.00;5092098;28;20444;-59
2023/01/26 00:34:50;;;;;;;0.40;0.30;;;;;;;5.67;99.99;95704.25;5091166;28;20475;-59
2023/01/26 00:37:19;;;;;;;0.40;0.40;;;;;;;5.86;98.07;95710.22;5092032;28;20539;-59
2023/01/26 00:39:48;;;;;;;0.80;0.80;;;;;;;5.00;100.00;95708.16;5091785;28;20503;-59
2023/01/26 00:42:19;;;;;;;0.57;0.40;;;;;;;5.11;100.00;95702.13;5091700;28;20435;-59
2023/01/26 00:44:47;;;;;;;0.30;0.20;;;;;;;5.10;100.00;95700.53;5091612;28;20428;-59
2023/01/26 00:47:18;;;;;;;0.37;0.37;;;;;;;4.71;100.00;95706.34;5090295;28;20563;-59
2023/01/26 00:49:46;;;;;;;0.63;0.63;;;;;;;5.37;100.00;95702.72;5091301;28;20524;-59
2023/01/26 00:52:15;;;;;;;0.30;0.27;;;;;;;5.52;98.16;95692.56;5091626;28;20424;-59
2023/01/26 00:54:43;;;;;;;2.43;0.80;;;;;;;5.53;95.61;95694.19;5092001;28;20421;-59
2023/01/26 00:57:11;;;;;;;0.47;0.33;;;;;;;5.26;94.94;95685.94;5091183;28;20428;-59
2023/01/26 00:59:39;;;;;;;0.57;0.57;;;;;;;5.02;94.46;95689.53;5090203;28;20916;-59
2023/01/26 01:02:08;;;;;;;0.43;0.43;;;;;;;5.34;95.10;95696.09;5091557;28;20450;-59
2023/01/26 01:04:37;;;;;;;0.73;0.73;;;;;;;5.59;91.38;95691.44;5091495;28;20908;-59
2023/01/26 01:07:06;;;;;;;1.50;1.30;;;;;;;5.51;91.46;95689.16;5091744;28;20471;-58
2023/01/26 01:09:34;;;;;;;0.43;0.40;;;;;;;5.63;89.79;95683.91;5091537;28;20902;-59
2023/01/26 01:12:02;;;;;;;0.63;0.40;;;;;;;5.91;89.84;95688.47;5091473;28;20432;-59
2023/01/26 01:14:30;;;;;;;0.50;0.50;;;;;;;5.64;89.61;95688.13;5091741;28;20443;-58
2023/01/26 01:16:59;;;;;;;0.50;0.40;;;;;;;5.85;88.19;95674.41;5091633;28;20429;-59
2023/01/26 01:19:27;;;;;;;0.70;0.70;;;;;;;5.76;89.30;95667.88;5091328;28;20943;-59
2023/01/26 01:21:57;;;;;;;0.30;0.20;;;;;;;5.98;88.95;95678.63;5090172;28;20519;-59
2023/01/26 01:24:25;;;;;;;1.00;0.60;;;;;;;5.77;90.64;95667.66;5090969;28;20437;-58
2023/01/26 01:26:53;;;;;;;0.50;0.30;;;;;;;5.92;88.62;95659.31;5091325;28;20858;-58
2023/01/26 01:29:21;;;;;;;0.30;0.30;;;;;;;5.84;88.84;95666.75;5091226;28;20436;-58
2023/01/26 01:31:50;;;;;;;0.50;0.40;;;;;;;5.92;89.57;95667.19;5091579;28;20421;-58
2023/01/26 01:34:18;;;;;;;1.03;1.03;;;;;;;6.10;88.50;95659.16;5090905;28;21108;-58
2023/01/26 01:36:46;;;;;;;0.70;0.70;;;;;;;6.09;88.20;95654.94;5091204;28;20762;-59
2023/01/26 01:39:16;;;;;;;0.40;0.37;;;;;;;6.26;88.18;95665.53;5094064;28;20442;-58
2023/01/26 01:41:43;;;;;;;0.50;0.40;;;;;;;6.08;87.12;95655.16;5095274;28;20501;-58
2023/01/26 01:44:17;;;;;;;0.50;0.43;;;;;;;5.97;88.03;95650.75;5095169;28;20444;-58
2023/01/26 01:46:55;;;;;;;0.50;0.50;;;;;;;5.47;90.84;95643.31;5094880;28;20432;-58
2023/01/26 01:49:28;;;;;;;0.40;0.40;;;;;;;5.23;94.43;95625.97;5094695;28;20432;-59
2023/01/26 01:52:02;;;;;;;4.63;0.57;;;;;;;5.72;93.30;95643.88;5094812;28;20444;-59
2023/01/26 01:54:35;;;;;;;1.20;0.63;;;;;;;4.62;94.44;95521.31;5094371;28;20475;-58
2023/01/26 01:57:14;;;;;;;0.30;0.20;;;;;;;5.68;94.31;95648.00;5094880;28;20421;-58
2023/01/26 01:59:45;;;;;;;0.60;0.60;;;;;;;5.75;94.02;95642.59;5094513;28;20432;-58
2023/01/26 02:02:14;;;;;;;0.30;0.30;;;;;;;4.99;95.19;95593.59;5094816;28;20459;-59
2023/01/26 02:04:43;;;;;;;0.50;0.50;;;;;;;4.88;98.70;95641.66;5094516;28;21139;-59
2023/01/26 02:07:13;;;;;;;0.60;0.60;;;;;;;5.13;100.00;95652.78;5094663;28;20432;-59
2023/01/26 02:12:33;;;;;;;3.30;1.23;;;;;;;5.19;97.51;95639.78;5094579;28;20437;-59
2023/01/26 02:15:03;;;;;;;1.60;0.50;;;;;;;5.05;97.99;95645.25;5094307;28;20432;-59
2023/01/26 02:17:31;;;;;;;1.97;0.70;;;;;;;5.24;95.88;95645.16;5094519;28;20524;-60
2023/01/26 02:20:05;;;;;;;0.40;0.30;;;;;;;4.60;94.82;95527.81;5094142;28;20527;-60
2023/01/26 02:22:42;;;;;;;0.93;0.93;;;;;;;5.71;92.56;95637.03;5094084;28;20429;-59
2023/01/26 02:25:25;;;;;;;7.73;0.83;;;;;;;5.58;92.70;95632.00;5094051;28;20428;-60
2023/01/26 02:27:55;;;;;;;0.30;0.20;;;;;;;5.58;92.18;95610.16;5094001;28;20474;-59
2023/01/26 02:30:25;;;;;;;0.30;0.30;;;;;;;5.23;93.24;95581.28;5093964;28;20817;-59
2023/01/26 02:32:53;;;;;;;0.70;0.50;;;;;;;5.65;91.79;95605.56;5093928;28;20421;-60
2023/01/26 02:35:22;;;;;;;0.97;0.97;;;;;;;5.28;93.74;95612.13;5093628;28;20519;-60
2023/01/26 02:37:50;;;;;;;0.77;0.40;;;;;;;5.47;94.28;95614.41;5093888;28;20461;-60
2023/01/26 02:40:30;;;;;;;0.43;0.40;;;;;;;5.41;95.13;95611.91;5093293;28;20527;-60
2023/01/26 02:43:01;;;;;;;0.53;0.40;;;;;;;5.41;97.09;95610.09;5093689;28;20523;-60
2023/01/26 02:45:32;;;;;;;0.30;0.20;;;;;;;5.30;96.89;95621.38;5093990;28;20861;-60
2023/01/26 02:48:03;;;;;;;0.30;0.20;;;;;;;5.58;95.50;95615.44;5093533;28;20555;-59
2023/01/26 02:50:30;;;;;;;0.30;0.23;;;;;;;5.65;95.09;95609.00;5093359;28;20519;-59
2023/01/26 02:52:59;;;;;;;0.30;0.20;;;;;;;5.62;94.85;95606.03;5093764;28;20436;-59
2023/01/26 02:55:27;;;;;;;0.40;0.30;;;;;;;5.65;93.43;95600.31;5093767;28;20420;-59
2023/01/26 02:57:58;;;;;;;0.50;0.37;;;;;;;5.47;94.08;95598.63;5093842;28;20867;-60
2023/01/26 03:00:35;;;;;;;0.40;0.20;;;;;;;4.91;95.28;95553.75;5093510;28;20438;-60
2023/01/26 03:03:14;;;;;;;0.40;0.30;;;;;;;5.61;96.39;95601.81;5093321;28;20515;-60
2023/01/26 03:05:42;;;;;;;0.80;0.80;;;;;;;5.31;95.65;95609.06;5092879;28;20427;-60
2023/01/26 03:08:11;;;;;;;0.43;0.43;;;;;;;5.47;96.07;95595.19;5093080;28;20572;-60
2023/01/26 03:10:40;;;;;;;0.53;0.53;;;;;;;5.29;97.10;95584.84;5093324;28;20453;-60
2023/01/26 03:13:08;;;;;;;0.30;0.20;;;;;;;5.31;95.64;95538.91;5092151;28;20428;-61
2023/01/26 03:15:51;;;;;;;0.37;0.30;;;;;;;5.72;94.35;95586.00;5093152;28;20859;-61
2023/01/26 03:29:23;;;;;;;0.60;0.60;;;;;;;5.00;100.00;95571.59;5092166;28;20464;-60
2023/01/26 03:31:52;;;;;;;0.57;0.57;;;;;;;5.10;100.00;95565.75;5092023;28;20429;-60
2023/01/26 03:34:21;;;;;;;0.60;0.40;;;;;;;4.88;100.00;95486.72;5091914;28;20558;-60
2023/01/26 03:36:49;;;;;;;0.40;0.30;;;;;;;5.04;100.00;95567.47;5092543;28;20460;-60
2023/01/26 03:56:20;;;;;;;0.50;0.40;;;;;;;4.64;95.74;95505.31;5092571;28;20778;-60
2023/01/26 03:58:51;;;;;;;0.60;0.60;;;;;;;4.71;96.08;95550.63;5092343;28;20421;-60
2023/01/26 04:01:26;;;;;;;0.40;0.37;;;;;;;4.69;98.59;95547.44;5091390;28;20457;-61
2023/01/26 04:09:32;;;;;;;1.00;1.00;;;;;;;5.08;96.93;95549.44;5091919;28;20555;-60
2023/01/26 04:12:00;;;;;;;0.37;0.27;;;;;;;5.32;95.00;95547.56;5092026;28;20462;-60
2023/01/26 04:22:52;;;;;;;0.40;0.40;;;;;;;4.91;96.70;95551.91;5091205;28;20428;-61
2023/01/26 04:25:22;;;;;;;0.60;0.47;;;;;;;4.69;100.00;95553.50;5091664;28;20520;-61
2023/01/26 04:27:50;;;;;;;2.77;1.07;;;;;;;4.35;100.00;95551.63;5092014;28;20478;-60
2023/01/26 04:30:19;;;;;;;0.83;0.83;;;;;;;3.57;100.00;95431.09;5091561;28;20504;-60
2023/01/26 04:32:47;;;;;;;0.40;0.30;;;;;;;4.36;100.00;95548.78;5091509;28;20917;-61
2023/01/26 04:35:17;;;;;;;0.50;0.50;;;;;;;4.29;100.00;95552.50;5090627;28;20551;-61
2023/01/26 04:37:45;;;;;;;0.30;0.20;;;;;;;4.21;100.00;95544.94;5091370;28;21012;-61
2023/01/26 04:40:14;;;;;;;0.30;0.20;;;;;;;4.47;100.00;95550.63;5091532;28;20511;-61
2023/01/26 04:42:42;;;;;;;1.23;1.23;;;;;;;4.55;100.00;95557.38;5091469;28;20463;-60
2023/01/26 04:45:11;;;;;;;0.30;0.30;;;;;;;4.47;100.00;95555.06;5091955;28;20491;-60
2023/01/26 04:47:39;;;;;;;0.50;0.37;;;;;;;4.39;100.00;95544.91;5091176;28;20427;-61
2023/01/26 04:50:09;;;;;;;0.53;0.40;;;;;;;4.20;100.00;95559.88;5091424;28;20471;-60
2023/01/26 04:52:39;;;;;;;0.70;0.40;;;;;;;4.07;100.00;95562.72;5091528;28;20526;-60
2023/01/26 04:55:08;;;;;;;0.80;0.80;;;;;;;4.16;100.00;95548.25;5091717;28;20839;-60
2023/01/26 04:57:36;;;;;;;0.73;0.73;;;;;;;3.97;100.00;95557.22;5091320;28;20816;-60
2023/01/26 05:00:07;;;;;;;0.30;0.30;;;;;;;3.37;100.00;95479.53;5091681;28;20951;-60
2023/01/26 05:02:35;;;;;;;0.70;0.70;;;;;;;3.71;100.00;95552.28;5091065;28;20488;-60
2023/01/26 05:05:04;;;;;;;0.40;0.30;;;;;;;3.90;100.00;95556.47;5091247;28;20429;-60
2023/01/26 05:07:32;;;;;;;3.20;0.70;;;;;;;3.92;100.00;95564.13;5091536;28;20867;-60
2023/01/26 05:10:02;;;;;;;1.07;0.97;;;;;;;3.89;100.00;95548.84;5091314;28;20507;-60
2023/01/26 05:12:33;;;;;;;0.77;0.50;;;;;;;3.85;100.00;95556.34;5093057;28;20459;-60
2023/01/26 05:15:01;;;;;;;0.30;0.20;;;;;;;3.95;100.00;95540.09;5095380;28;20475;-60
2023/01/26 05:17:30;;;;;;;0.57;0.40;;;;;;;3.99;100.00;95546.47;5095300;28;20517;-60
2023/01/26 05:19:58;;;;;;;0.30;0.30;;;;;;;4.07;100.00;95546.97;5095269;28;20427;-60
2023/01/26 05:22:26;;;;;;;0.30;0.30;;;;;;;4.15;100.00;95540.63;5094645;28;20427;-60
2023/01/26 05:24:54;;;;;;;1.30;1.30;;;;;;;4.12;100.00;95539.25;5094907;28;20915;-59
2023/01/26 05:27:24;;;;;;;2.10;2.00;;;;;;;3.91;100.00;95541.53;5094837;28;20454;-60
2023/01/26 05:29:54;;;;;;;0.77;0.77;;;;;;;4.20;100.00;95540.75;5094896;28;20998;-60
2023/01/26 05:32:22;;;;;;;1.30;1.20;;;;;;;4.03;100.00;95522.22;5095193;28;20457;-60
2023/01/26 05:34:50;;;;;;;1.87;1.80;;;;;;;3.36;100.00;95518.03;5094221;28;20478;-60
2023/01/26 05:37:18;;;;;;;0.50;0.50;;;;;;;3.26;100.00;95543.16;5094894;28;20437;-61
2023/01/26 05:39:47;;;;;;;0.50;0.50;;;;;;;3.82;100.00;95547.09;5094622;28;20423;-61
2023/01/26 05:42:15;;;;;;;0.40;0.37;;;;;;;3.81;100.00;95540.25;5094528;28;20442;-61
2023/01/26 05:44:45;;;;;;;0.30;0.20;;;;;;;4.27;100.00;95526.50;5094470;28;20515;-61
2023/01/26 05:47:13;;;;;;;0.40;0.40;;;;;;;4.38;100.00;95499.47;5074148;28;20428;-61
2023/01/26 05:49:44;;;;;;;0.33;0.27;;;;;;;4.56;100.00;95527.47;5074141;28;20475;-61
2023/01/26 05:52:19;;;;;;;0.40;0.40;;;;;;;3.82;100.00;95444.03;5074219;28;20505;-60
2023/01/26 05:54:48;;;;;;;0.50;0.50;;;;;;;3.99;100.00;95522.88;5074009;28;20427;-61
2023/01/26 05:57:16;;;;;;;0.60;0.40;;;;;;;3.92;100.00;95522.97;5073687;28;20552;-61
2023/01/26 05:59:46;;;;;;;2.23;1.70;;;;;;;3.65;100.00;95517.28;5074226;28;20525;-61
2023/01/26 06:02:15;;;;;;;1.47;1.37;;;;;;;3.61;100.00;95523.97;5074077;28;20905;-61
2023/01/26 06:04:43;;;;;;;0.90;0.90;;;;;;;3.69;100.00;95522.88;5074340;28;20428;-60
2023/01/26 06:07:12;;;;;;;7.40;1.73;;;;;;;3.86;100.00;95513.38;5074079;28;20811;-59
2023/01/26 06:09:41;;;;;;;2.07;1.97;;;;;;;3.96;100.00;95499.72;5073526;28;20478;-60
2023/01/26 06:12:15;;;;;;;1.47;1.43;;;;;;;3.77;100.00;95507.63;5073385;28;20489;-60
2023/01/26 06:14:44;;;;;;;0.40;0.30;;;;;;;3.42;100.00;95506.66;5073503;28;20438;-60
2023/01/26 06:17:17;;;;;;;0.40;0.30;;;;;;;3.66;100.00;95504.97;5073184;28;20439;-59
2023/01/26 06:19:46;;;;;;;0.33;0.30;;;;;;;3.85;100.00;95494.22;5073807;28;20463;-60
2023/01/26 06:22:14;;;;;;;1.90;1.90;;;;;;;3.94;100.00;95478.97;5073767;28;20430;-59
2023/01/26 06:24:43;;;;;;;4.47;0.70;;;;;;;4.28;100.00;95493.97;5073369;28;20498;-59
2023/01/26 06:27:13;;;;;;;0.50;0.30;;;;;;;4.29;100.00;95485.09;5073670;28;20434;-60
2023/01/26 06:29:41;;;;;;;0.37;0.27;;;;;;;4.22;100.00;95488.84;5073347;28;20477;-60
2023/01/26 06:32:10;;;;;;;0.70;0.70;;;;;;;4.49;100.00;95488.22;5072951;28;20436;-60
2023/01/26 06:34:40;;;;;;;2.17;0.70;;;;;;;4.46;100.00;95478.16;5073151;28;20506;-59
2023/01/26 06:37:09;;;;;;;1.80;0.53;;;;;;;4.31;100.00;95477.00;5073116;28;20424;-59
2023/01/26 06:39:37;;;;;;;0.50;0.50;;;;;;;4.12;100.00;95465.00;5073436;28;20435;-58
2023/01/26 06:42:08;;;;;;;0.93;0.50;;;;;;;3.56;100.00;95442.63;5073632;28;20539;-59
2023/01/26 06:44:36;;;;;;;1.27;1.27;;;;;;;3.64;100.00;95472.94;5073384;28;20850;-59
2023/01/26 06:47:06;;;;;;;0.43;0.43;;;;;;;3.69;100.00;95381.34;5073266;28;20491;-60
2023/01/26 06:49:36;;;;;;;0.50;0.50;;;;;;;3.40;100.00;95324.53;5073599;28;20439;-60
2023/01/26 06:52:21;;;;;;;0.80;0.80;;;;;;;4.42;100.00;95453.41;5073666;28;20497;-59
2023/01/26 06:54:53;;;;;;;0.40;0.30;;;;;;;4.55;100.00;95451.59;5073621;28;20425;-59
2023/01/26 06:57:21;;;;;;;2.30;0.83;;;;;;;4.58;100.00;95454.53;5073525;28;20424;-59
2023/01/26 06:59:50;;;;;;;0.53;0.47;;;;;;;4.61;100.00;95456.72;5073166;28;20437;-60
2023/01/26 07:02:20;;;;;;;0.70;0.50;;;;;;;4.33;100.00;95419.84;5073279;28;20436;-59
2023/01/26 07:04:50;;;;;;;1.13;0.50;;;;;;;4.57;100.00;95457.41;5073009;28;20435;-60
2023/01/26 07:07:20;;;;;;;0.90;0.90;;;;;;;4.72;100.00;95457.75;5072951;28;20911;-59
2023/01/26 07:09:48;;;;;;;1.17;0.67;;;;;;;4.58;100.00;95451.91;5073082;28;20440;-59
2023/01/26 07:12:16;;;;;;;0.73;0.73;;;;;;;4.77;100.00;95463.91;5072873;28;20428;-60
2023/01/26 07:14:45;;;;;;;0.73;0.73;;;;;;;4.51;100.00;95464.34;5073001;28;20439;-60
2023/01/26 07:17:13;;;;;;;0.50;0.50;;;;;;;4.88;100.00;95459.69;5071974;28;20461;-60
2023/01/26 07:19:41;;;;;;;4.60;1.00;;;;;;;4.97;100.00;95460.91;5072870;28;20457;-60
2023/01/26 07:22:10;;;;;;;7.33;1.70;;;;;;;5.53;100.00;95455.75;5072530;28;20429;-60
2023/01/26 07:24:39;;;;;;;1.13;0.70;;;;;;;5.76;99.77;95455.66;5072913;28;20463;-60
2023/01/26 07:27:08;;;;;;;1.93;1.30;;;;;;;5.48;100.00;95447.78;5073014;28;20539;-60
2023/01/26 07:29:36;;;;;;;4.23;0.57;;;;;;;5.84;100.00;95451.88;5072040;28;20516;-60
2023/01/26 07:32:05;;;;;;;1.23;0.40;;;;;;;5.31;100.00;95446.94;5071961;28;20567;-59
2023/01/26 07:34:33;;;;;;;1.27;1.27;;;;;;;5.06;100.00;95449.81;5072060;28;20469;-60
2023/01/26 07:37:01;;;;;;;1.33;1.23;;;;;;;5.12;100.00;95438.41;5071557;28;20441;-59
2023/01/26 07:39:30;;;;;;;6.37;2.63;;;;;;;5.16;100.00;95451.06;5072402;28;20449;-59
2023/01/26 07:41:59;;;;;;;0.40;0.30;;;;;;;5.12;100.00;95438.41;5080596;28;21011;-59
2023/01/26 07:44:28;;;;;;;1.00;1.00;;;;;;;4.95;100.00;95418.31;5092424;28;20420;-59
2023/01/26 07:46:57;;;;;;;1.50;0.87;;;;;;;5.13;100.00;95439.19;5092466;28;20520;-59
2023/01/26 07:49:25;;;;;;;3.07;0.60;;;;;;;4.91;100.00;95431.13;5092540;28;20962;-59
2023/01/26 07:51:54;;;;;;;1.57;1.43;;;;;;;4.97;100.00;95435.44;5092255;28;20480;-59
2023/01/26 07:54:22;;;;;;;2.90;2.80;;;;;;;5.08;100.00;95437.25;5092276;28;20443;-59
2023/01/26 07:56:53;;;;;;;3.53;2.70;;;;;;;5.08;100.00;95442.50;5092272;28;20444;-59
2023/01/26 07:59:23;;;;;;;10.57;2.57;;;;;;;5.23;100.00;95433.34;5092315;28;20426;-59
2023/01/26 08:01:52;;;;;;;1.37;0.67;;;;;;;5.41;100.00;95433.19;5092430;28;20517;-58
2023/01/26 08:04:20;;;;;;;6.27;2.80;;;;;;;5.32;100.00;95432.75;5091385;28;20413;-57
2023/01/26 08:06:51;;;;;;;1.23;1.20;;;;;;;5.28;100.00;95436.06;5092198;28;20511;-57
2023/01/26 08:09:20;;;;;;;2.37;2.13;;;;;;;5.32;100.00;95431.94;5091867;28;20433;-58
2023/01/26 08:11:48;;;;;;;1.80;1.70;;;;;;;5.36;100.00;95433.88;5091685;28;20499;-58
2023/01/26 08:14:16;;;;;;;1.50;1.30;;;;;;;5.38;100.00;95434.44;5091240;28;20443;-58
2023/01/26 08:16:46;;;;;;;9.57;4.30;;;;;;;5.41;100.00;95430.53;5091063;28;20444;-57
2023/01/26 08:19:16;;;;;;;0.60;0.47;;;;;;;5.40;100.00;95429.75;5091206;28;20453;-58
2023/01/26 08:21:45;;;;;;;2.47;2.37;;;;;;;5.43;100.00;95434.53;5091764;28;20432;-57
2023/01/26 08:24:13;;;;;;;1.13;1.10;;;;;;;5.46;100.00;95431.44;5091828;28;20523;-57
2023/01/26 08:26:41;;;;;;;2.10;0.60;;;;;;;5.50;100.00;95429.13;5091642;28;20439;-57
2023/01/26 08:29:10;;;;;;;7.53;1.60;;;;;;;5.50;100.00;95423.88;5091754;28;20547;-57
2023/01/26 08:31:40;;;;;;;1.23;1.23;;;;;;;5.36;100.00;95423.38;5091350;28;20475;-57
2023/01/26 08:34:09;;;;;;;1.10;0.90;;;;;;;5.66;100.00;95423.13;5090700;28;20503;-57
2023/01/26 08:36:39;;;;;;;5.33;5.13;;;;;;;5.34;100.00;95428.03;5091696;28;20424;-57
2023/01/26 08:39:07;;;;;;;1.87;1.83;;;;;;;5.44;100.00;95422.97;5091440;28;20421;-57
2023/01/26 08:41:35;;;;;;;4.80;2.13;;;;;;;5.68;100.00;95413.16;5091466;28;20440;-57
2023/01/26 08:44:04;;;;;;;2.70;2.60;;;;;;;5.55;100.00;95390.59;5091500;28;20507;-58
2023/01/26 08:46:33;;;;;;;2.70;2.50;;;;;;;5.74;100.00;95405.13;5091003;28;20436;-57
2023/01/26 08:49:01;;;;;;;1.80;1.70;;;;;;;5.78;100.00;95405.47;5091546;28;20431;-57
2023/01/26 08:51:31;;;;;;;1.60;1.60;;;;;;;5.79;99.48;95404.44;5091199;28;20461;-58
2023/01/26 08:53:59;;;;;;;0.73;0.73;;;;;;;5.75;100.00;95405.94;5091829;28;20447;-58
2023/01/26 08:56:27;;;;;;;2.93;1.33;;;;;;;5.82;100.00;95395.28;5091740;28;20920;-58
2023/01/26 08:58:56;;;;;;;0.93;0.93;;;;;;;5.13;100.00;95390.06;5091612;28;20421;-58
2023/01/26 09:01:24;;;;;;;0.40;0.40;;;;;;;5.41;100.00;95372.72;5091358;28;20521;-58
2023/01/26 09:03:54;;;;;;;0.73;0.73;;;;;;;5.37;100.00;95393.41;5091407;28;20425;-58
2023/01/26 09:06:23;;;;;;;1.00;0.90;;;;;;;5.29;100.00;95391.16;5091332;28;20476;-58
2023/01/26 09:08:52;;;;;;;0.40;0.40;;;;;;;5.53;100.00;95386.59;5091254;28;20516;-58
2023/01/26 09:11:21;;;;;;;1.20;1.13;;;;;;;5.98;100.00;95378.72;5091340;28;20472;-58
2023/01/26 09:13:55;;;;;;;0.50;0.33;;;;;;;6.16;100.00;95355.63;5091676;28;20429;-58
2023/01/26 09:16:24;;;;;;;0.60;0.60;;;;;;;6.15;99.37;95364.53;5091692;28;20423;-60
2023/01/26 09:18:53;;;;;;;3.87;1.67;;;;;;;6.05;97.25;95360.94;5091207;28;20435;-60
2023/01/26 09:21:23;;;;;;;2.00;1.27;;;;;;;6.00;99.38;95353.78;5091552;28;20444;-59
2023/01/26 09:23:53;;;;;;;0.90;0.90;;;;;;;5.93;100.00;95355.78;5091241;28;20941;-60
2023/01/26 09:26:21;;;;;;;2.20;1.47;;;;;;;5.86;100.00;95341.97;5091308;28;20425;-59
2023/01/26 09:28:51;;;;;;;0.50;0.50;;;;;;;6.08;100.00;95340.22;5091155;28;20516;-59
2023/01/26 09:31:19;;;;;;;0.90;0.90;;;;;;;6.03;98.44;95336.72;5091047;28;20475;-59
2023/01/26 09:33:49;;;;;;;2.17;2.10;;;;;;;5.77;97.47;95303.91;5091030;28;20433;-59
2023/01/26 09:36:17;;;;;;;0.80;0.80;;;;;;;5.48;98.31;95276.91;5091058;28;20461;-60
2023/01/26 09:38:46;;;;;;;4.80;1.53;;;;;;;6.29;97.65;95339.50;5091099;28;20467;-60
2023/01/26 09:41:38;;;;;;;4.07;2.10;;;;;;;6.38;97.93;95327.50;5091170;28;20434;-59
2023/01/26 09:44:10;;;;;;;2.00;1.37;;;;;;;6.59;97.33;95293.53;5091275;28;20436;-60
2023/01/26 09:46:53;;;;;;;3.70;0.93;;;;;;;6.63;95.54;95305.19;5091116;28;20497;-60
2023/01/26 09:49:27;;;;;;;0.93;0.93;;;;;;;6.82;95.23;95298.56;5090819;28;20452;-60
2023/01/26 09:52:05;;;;;;;2.17;1.53;;;;;;;6.92;91.56;95285.50;5090877;28;20468;-60
2023/01/26 09:54:39;;;;;;;2.07;1.97;;;;;;;6.81;92.58;95273.25;5091003;28;20940;-60
2023/01/26 09:57:14;;;;;;;3.03;0.60;;;;;;;7.17;91.26;95282.34;5091214;28;20461;-60
2023/01/26 09:59:49;;;;;;;1.57;1.50;;;;;;;7.38;88.41;95277.03;5092564;28;20440;-59
2023/01/26 10:02:38;;;;;;;7.80;2.40;;;;;;;7.44;88.59;95270.75;5093761;28;20421;-60
2023/01/26 10:05:16;;;;;;;2.93;2.73;;;;;;;7.52;88.24;95259.75;5094247;28;20944;-60
2023/01/26 10:07:45;;;;;;;1.00;1.00;;;;;;;7.79;84.83;95253.63;5094292;28;20428;-60
2023/01/26 10:10:19;;;;;;;1.03;1.03;;;;;;;7.01;84.20;95250.56;5094343;28;20440;-59
2023/01/26 10:12:51;;;;;;;3.50;1.27;;;;;;;6.44;90.71;95259.94;5093578;28;20480;-60
2023/01/26 10:15:28;;;;;;;1.27;1.17;;;;;;;6.72;91.21;95248.41;5094342;28;20436;-60
2023/01/26 10:18:00;;;;;;;1.63;0.60;;;;;;;6.73;90.09;95250.00;5094530;28;20437;-60
2023/01/26 10:20:33;;;;;;;2.10;1.63;;;;;;;6.59;92.83;95243.50;5094468;28;20422;-59
2023/01/26 10:23:05;;;;;;;2.23;2.10;;;;;;;6.54;96.05;95240.81;5093866;28;20525;-60
2023/01/26 10:25:35;;;;;;;2.20;2.10;;;;;;;5.86;98.13;95168.41;5094132;28;20542;-60
2023/01/26 10:28:13;;;;;;;0.73;0.73;;;;;;;6.39;98.34;95221.19;5094112;28;20429;-60
2023/01/26 10:30:43;;;;;;;0.50;0.50;;;;;;;6.47;98.68;95232.31;5094297;28;20475;-60
2023/01/26 10:33:18;;;;;;;1.00;1.00;;;;;;;6.84;93.31;95228.00;5093621;28;21121;-60
2023/01/26 10:35:47;;;;;;;0.50;0.47;;;;;;;6.76;91.31;95229.22;5093514;28;20563;-60
2023/01/26 10:38:41;;;;;;;0.50;0.30;;;;;;;6.58;92.62;95216.38;5094055;28;20428;-60
2023/01/26 10:41:24;;;;;;;2.40;0.77;;;;;;;6.78;89.50;95211.34;5093309;28;20453;-60
2023/01/26 10:43:56;;;;;;;0.50;0.50;;;;;;;6.47;92.38;95213.88;5093531;28;20417;-60
2023/01/26 10:46:27;;;;;;;0.53;0.53;;;;;;;6.29;95.60;95207.91;5093788;28;20437;-60
2023/01/26 10:48:58;;;;;;;0.60;0.60;;;;;;;5.98;96.14;95205.09;5093110;28;20421;-60
2023/01/26 10:51:29;;;;;;;1.27;1.27;;;;;;;5.79;95.55;95144.09;5093104;28;20521;-60
2023/01/26 10:54:20;;;;;;;0.90;0.90;;;;;;;6.15;97.68;95205.84;5093410;28;20465;-60
2023/01/26 10:56:52;;;;;;;0.93;0.93;;;;;;;5.90;96.60;95193.16;5088262;28;20451;-60
2023/01/26 10:59:32;;;;;;;1.27;1.17;;;;;;;6.28;97.15;95192.34;5092519;28;20467;-61
2023/01/26 11:02:02;;;;;;;1.63;1.53;;;;;;;6.02;99.97;95190.44;5093212;28;20448;-61
2023/01/26 11:04:30;;;;;;;1.63;1.53;;;;;;;5.80;100.00;95198.25;5093090;28;20423;-60
2023/01/26 11:07:25;;;;;;;1.10;1.10;;;;;;;5.39;100.00;95177.69;5093487;28;20424;-61
2023/01/26 11:09:54;;;;;;;0.83;0.83;;;;;;;5.20;100.00;95174.50;5092900;28;20913;-60
2023/01/26 11:12:27;;;;;;;1.67;1.53;;;;;;;5.27;100.00;95164.63;5093258;28;20546;-60
2023/01/26 11:15:15;;;;;;;0.87;0.87;;;;;;;5.05;100.00;95155.88;5092903;28;20469;-60
2023/01/26 11:17:51;;;;;;;8.53;1.37;;;;;;;4.78;100.00;95152.28;5092650;28;20477;-58
2023/01/26 11:20:44;;;;;;;2.20;2.10;;;;;;;4.93;100.00;95165.66;5092718;28;20429;-58
2023/01/26 11:23:23;;;;;;;3.53;2.30;;;;;;;4.32;100.00;95153.28;5092767;28;20432;-59
2023/01/26 11:26:24;;;;;;;2.77;2.67;;;;;;;3.96;100.00;95141.31;5092772;28;20922;-59
2023/01/26 11:29:07;;;;;;;4.30;2.07;;;;;;;4.07;100.00;95156.22;5092827;28;20432;-58
2023/01/26 11:31:46;;;;;;;1.10;1.10;;;;;;;4.29;100.00;95143.25;5092523;28;20444;-59
2023/01/26 11:34:28;;;;;;;0.93;0.93;;;;;;;4.50;100.00;95132.09;5092197;28;20545;-58
2023/01/26 11:37:15;;;;;;;1.57;1.50;;;;;;;4.95;100.00;95121.56;5092354;28;20526;-58
2023/01/26 11:39:54;;;;;;;1.37;1.27;;;;;;;5.13;100.00;95127.34;5092353;28;20464;-58
2023/01/26 11:42:32;;;;;;;1.23;1.13;;;;;;;5.25;100.00;95093.13;5092407;28;20417;-59
2023/01/26 11:45:17;;;;;;;1.53;1.37;;;;;;;5.31;100.00;95118.47;5092802;28;20492;-61
2023/01/26 11:48:03;;;;;;;9.00;0.77;;;;;;;5.35;100.00;95113.50;5092256;28;20519;-58
2023/01/26 11:50:39;;;;;;;0.70;0.70;;;;;;;5.35;100.00;95111.66;5092192;28;20439;-58
2023/01/26 11:53:35;;;;;;;0.70;0.70;;;;;;;5.37;100.00;95109.59;5092272;28;20480;-59
2023/01/26 11:56:17;;;;;;;3.67;3.40;;;;;;;5.09;100.00;95068.47;5092157;28;20452;-59
2023/01/26 11:58:50;;;;;;;0.70;0.70;;;;;;;5.43;100.00;95098.13;5092224;28;20433;-59
2023/01/26 12:01:27;;;;;;;0.97;0.97;;;;;;;5.26;100.00;95089.47;5091522;28;20770;-59
2023/01/26 12:03:58;;;;;;;0.60;0.60;;;;;;;5.13;100.00;95093.22;5092178;28;20428;-59
2023/01/26 12:06:34;;;;;;;0.60;0.60;;;;;;;5.16;100.00;95091.16;5092148;28;20428;-59
2023/01/26 12:09:10;;;;;;;1.60;1.47;;;;;;;4.96;100.00;95084.56;5092107;28;20875;-59
2023/01/26 12:11:42;;;;;;;1.80;1.70;;;;;;;5.11;100.00;95084.78;5092237;28;20436;-60
2023/01/26 12:14:21;;;;;;;14.83;4.23;;;;;;;4.98;100.00;95081.72;5091760;28;20836;-59
2023/01/26 12:17:13;;;;;;;2.63;2.53;;;;;;;5.00;100.00;95079.63;5091676;28;20940;-59
2023/01/26 12:19:54;;;;;;;2.97;2.77;;;;;;;4.96;100.00;95071.41;5091836;28;20417;-59
2023/01/26 12:22:30;;;;;;;2.67;2.47;;;;;;;4.75;100.00;95037.22;5091165;28;20435;-59
2023/01/26 12:25:13;;;;;;;4.80;4.60;;;;;;;4.75;100.00;95071.38;5092045;28;20443;-59
2023/01/26 12:27:54;;;;;;;4.90;4.60;;;;;;;4.48;100.00;95076.41;5091221;28;20447;-60
2023/01/26 12:30:31;;;;;;;16.90;2.90;;;;;;;4.12;100.00;95082.09;5092020;28;20428;-59
2023/01/26 12:33:00;;;;;;;3.43;3.23;;;;;;;4.04;100.00;95083.25;5091317;28;20870;-59
2023/01/26 12:35:42;;;;;;;5.10;4.53;;;;;;;3.87;100.00;95071.94;5091374;28;20507;-59
2023/01/26 12:38:17;;;;;;;4.20;3.30;;;;;;;3.61;100.00;95057.53;5091719;28;20464;-59
2023/01/26 12:41:01;;;;;;;2.93;2.00;;;;;;;4.13;100.00;95060.06;5091260;28;20528;-59